Time;durP1;ratioP1;P1;durP2;ratioP2;P2;SDS_P1;SDS_P2;PMS_P1;PMS_P2;Temp;Humidity;BMP_temperature;BMP_pressure;BME280_temperature;BME280_humidity;BME280_pressure;Samples;Min_cycle;Max_cycle;Signal;HPM_P1;HPM_P2
2023/08/16 00:02:03;;;;;;;1.50;0.88;;;26.40;63.40;;;;;;6311787;22;20230;-84
2023/08/16 00:04:32;;;;;;;0.60;0.60;;;26.30;63.30;;;;;;6313483;22;20153;-85
2023/08/16 00:07:01;;;;;;;0.55;0.40;;;26.40;63.30;;;;;;6311926;22;20175;-84
2023/08/16 00:09:30;;;;;;;0.40;0.40;;;26.30;63.30;;;;;;6310422;22;20641;-85
2023/08/16 00:11:59;;;;;;;1.17;0.77;;;26.30;63.20;;;;;;6280946;22;20176;-85
2023/08/16 00:14:29;;;;;;;1.90;0.98;;;26.30;63.70;;;;;;6307157;22;20165;-87
2023/08/16 00:16:57;;;;;;;1.75;0.95;;;26.20;63.90;;;;;;6308334;22;20165;-88
2023/08/16 00:19:26;;;;;;;0.70;0.70;;;26.20;63.90;;;;;;6308303;22;20266;-85
2023/08/16 00:21:55;;;;;;;1.83;0.60;;;26.10;63.90;;;;;;6308432;22;20176;-86
2023/08/16 00:24:23;;;;;;;0.45;0.45;;;26.10;64.10;;;;;;6280159;22;20626;-86
2023/08/16 00:26:54;;;;;;;1.20;1.10;;;26.10;63.90;;;;;;6308782;22;20172;-86
2023/08/16 00:29:22;;;;;;;0.80;0.80;;;26.10;63.80;;;;;;6308487;22;20197;-86
2023/08/16 00:31:52;;;;;;;1.98;1.02;;;26.10;64.20;;;;;;6307490;22;20169;-85
2023/08/16 00:34:20;;;;;;;1.02;0.73;;;26.10;64.20;;;;;;6309089;22;20169;-84
2023/08/16 00:36:49;;;;;;;1.70;0.77;;;26.00;64.20;;;;;;6309366;22;20184;-86
2023/08/16 00:39:17;;;;;;;1.40;1.15;;;26.00;64.30;;;;;;6309138;22;20196;-85
2023/08/16 00:41:45;;;;;;;1.08;0.77;;;26.00;64.10;;;;;;6316332;22;20168;-85
2023/08/16 00:44:13;;;;;;;0.70;0.70;;;26.00;64.10;;;;;;6309397;22;20641;-86
2023/08/16 00:46:42;;;;;;;0.68;0.65;;;26.00;64.30;;;;;;6310560;22;20168;-84
2023/08/16 00:49:12;;;;;;;1.27;1.13;;;25.90;64.20;;;;;;6310512;22;20226;-85
2023/08/16 00:51:42;;;;;;;1.38;0.75;;;25.90;64.20;;;;;;6309553;22;20164;-85
2023/08/16 00:54:11;;;;;;;0.70;0.68;;;26.00;64.30;;;;;;6308042;22;20173;-86
2023/08/16 00:56:40;;;;;;;0.40;0.40;;;25.90;64.00;;;;;;6308986;22;20176;-85
2023/08/16 00:59:09;;;;;;;1.50;1.05;;;25.90;64.30;;;;;;6307821;22;20390;-86
2023/08/16 01:01:38;;;;;;;1.30;1.00;;;25.90;64.40;;;;;;6308130;22;20169;-85
2023/08/16 01:04:06;;;;;;;0.40;0.40;;;25.90;64.10;;;;;;6307942;22;20614;-84
2023/08/16 01:06:36;;;;;;;0.80;0.65;;;25.90;64.10;;;;;;6309082;22;20165;-87
2023/08/16 01:09:05;;;;;;;2.40;1.38;;;25.90;64.20;;;;;;6282886;22;20173;-85
2023/08/16 01:11:39;;;;;;;0.80;0.80;;;25.90;64.10;;;;;;6309538;22;20197;-85
2023/08/16 01:14:14;;;;;;;0.95;0.77;;;25.90;63.90;;;;;;6308493;22;20228;-86
2023/08/16 01:16:45;;;;;;;0.63;0.63;;;25.80;63.80;;;;;;6309965;22;20171;-86
2023/08/16 01:19:27;;;;;;;0.88;0.60;;;25.80;63.70;;;;;;6308369;22;20200;-84
2023/08/16 01:22:04;;;;;;;1.13;0.93;;;25.80;63.80;;;;;;6307911;22;20154;-85
2023/08/16 01:24:39;;;;;;;0.73;0.60;;;25.90;63.70;;;;;;6307228;22;20159;-83
2023/08/16 01:27:09;;;;;;;0.40;0.40;;;25.80;63.50;;;;;;6308674;22;20160;-85
2023/08/16 01:29:40;;;;;;;0.73;0.70;;;25.90;63.60;;;;;;6276830;22;20530;-86
2023/08/16 01:32:09;;;;;;;1.30;0.50;;;25.80;63.40;;;;;;6277071;22;20154;-85
2023/08/16 01:34:37;;;;;;;0.93;0.60;;;25.90;63.40;;;;;;6277200;22;20172;-84
2023/08/16 01:37:06;;;;;;;0.90;0.55;;;25.90;63.30;;;;;;6250296;22;20166;-85
2023/08/16 01:39:34;;;;;;;0.30;0.30;;;25.90;63.40;;;;;;6278111;22;20204;-85
2023/08/16 01:42:04;;;;;;;1.13;1.02;;;25.80;63.20;;;;;;6279919;22;20252;-84
2023/08/16 01:44:35;;;;;;;0.50;0.40;;;25.90;63.30;;;;;;6281828;22;20164;-86
2023/08/16 01:47:04;;;;;;;0.70;0.68;;;25.90;63.30;;;;;;6278864;22;20164;-85
2023/08/16 01:49:33;;;;;;;1.17;0.95;;;25.90;63.20;;;;;;6279339;22;20252;-85
2023/08/16 01:52:03;;;;;;;1.00;0.68;;;25.80;63.20;;;;;;6278668;22;20169;-87
2023/08/16 01:54:31;;;;;;;1.10;0.80;;;25.90;63.20;;;;;;6277244;22;20165;-83
2023/08/16 01:57:00;;;;;;;1.02;0.40;;;25.90;63.10;;;;;;6277259;22;20646;-85
2023/08/16 01:59:28;;;;;;;1.30;0.80;;;25.80;63.00;;;;;;6278668;22;20595;-86
2023/08/16 02:02:00;;;;;;;0.30;0.30;;;25.90;63.30;;;;;;6277203;22;20162;-83
2023/08/16 02:04:28;;;;;;;0.73;0.50;;;25.80;63.30;;;;;;6276959;22;20162;-86
2023/08/16 02:06:57;;;;;;;0.80;0.80;;;25.80;63.80;;;;;;6278146;22;20665;-84
2023/08/16 02:09:28;;;;;;;0.63;0.50;;;25.80;64.10;;;;;;6277893;22;20181;-82
2023/08/16 02:11:56;;;;;;;0.70;0.70;;;25.70;64.60;;;;;;6280326;22;20166;-84
2023/08/16 02:14:25;;;;;;;0.40;0.40;;;25.60;65.20;;;;;;6277336;22;20201;-85
2023/08/16 02:16:53;;;;;;;1.58;0.95;;;25.60;65.80;;;;;;6280326;22;20223;-85
2023/08/16 02:19:24;;;;;;;1.33;0.93;;;25.60;66.30;;;;;;6282897;22;20213;-86
2023/08/16 02:21:53;;;;;;;1.73;1.13;;;25.60;67.00;;;;;;6279311;22;20170;-87
2023/08/16 02:24:22;;;;;;;2.55;0.98;;;25.50;68.40;;;;;;6279242;22;20170;-85
2023/08/16 02:26:50;;;;;;;0.57;0.57;;;25.50;69.00;;;;;;6278277;22;20626;-84
2023/08/16 02:29:19;;;;;;;0.28;0.28;;;25.50;68.20;;;;;;6303418;22;20219;-83
2023/08/16 02:31:47;;;;;;;0.40;0.40;;;25.40;68.00;;;;;;6308467;22;20227;-86
2023/08/16 02:34:15;;;;;;;1.10;0.85;;;25.40;67.80;;;;;;6306579;22;20196;-84
2023/08/16 02:36:45;;;;;;;0.73;0.60;;;25.40;68.80;;;;;;6307573;22;20165;-81
2023/08/16 02:39:14;;;;;;;0.40;0.40;;;25.40;68.30;;;;;;6309741;22;20268;-85
2023/08/16 02:41:42;;;;;;;0.50;0.50;;;25.30;69.00;;;;;;6311695;22;20165;-84
2023/08/16 02:44:11;;;;;;;0.80;0.80;;;25.30;69.80;;;;;;6308500;22;20492;-87
2023/08/16 02:46:40;;;;;;;0.95;0.70;;;25.30;70.70;;;;;;6309789;22;20168;-84
2023/08/16 02:49:09;;;;;;;1.65;1.10;;;25.20;70.50;;;;;;6307564;22;20169;-85
2023/08/16 02:51:37;;;;;;;1.30;0.70;;;25.20;70.20;;;;;;6284338;22;20229;-85
2023/08/16 02:54:07;;;;;;;1.75;1.38;;;25.20;70.00;;;;;;6311242;22;20177;-84
2023/08/16 02:56:36;;;;;;;1.02;0.80;;;25.20;69.70;;;;;;6312589;22;20169;-85
2023/08/16 02:59:05;;;;;;;0.50;0.50;;;25.20;69.70;;;;;;6310625;22;20169;-85
2023/08/16 03:01:34;;;;;;;0.73;0.65;;;25.20;70.00;;;;;;6309171;22;20686;-85
2023/08/16 03:04:02;;;;;;;1.23;1.13;;;25.20;70.30;;;;;;6310940;22;20216;-84
2023/08/16 03:06:31;;;;;;;1.45;0.93;;;25.20;70.50;;;;;;6310774;22;20173;-85
2023/08/16 03:09:02;;;;;;;1.88;0.98;;;25.20;71.20;;;;;;6310988;22;20161;-85
2023/08/16 03:11:32;;;;;;;0.88;0.70;;;25.10;71.40;;;;;;6311347;22;20610;-85
2023/08/16 03:14:00;;;;;;;3.08;1.52;;;25.10;71.40;;;;;;6308841;22;20180;-86
2023/08/16 03:16:29;;;;;;;0.50;0.50;;;25.10;71.30;;;;;;6309269;22;20240;-86
2023/08/16 03:18:58;;;;;;;0.82;0.80;;;25.00;72.20;;;;;;6311427;22;20301;-85
2023/08/16 03:21:27;;;;;;;0.70;0.63;;;25.00;72.10;;;;;;6309693;22;20276;-84
2023/08/16 03:23:55;;;;;;;0.68;0.50;;;25.00;72.40;;;;;;6309961;22;20235;-83
2023/08/16 03:26:24;;;;;;;0.70;0.70;;;25.00;72.50;;;;;;6313804;22;20217;-86
2023/08/16 03:28:54;;;;;;;0.50;0.50;;;25.00;72.40;;;;;;6311799;22;20583;-84
2023/08/16 03:31:23;;;;;;;1.58;1.25;;;25.00;72.40;;;;;;6311651;22;20157;-86
2023/08/16 03:33:52;;;;;;;1.42;0.88;;;25.00;72.40;;;;;;6311986;22;20224;-84
2023/08/16 03:36:20;;;;;;;0.98;0.73;;;25.00;72.50;;;;;;6309708;22;20181;-85
2023/08/16 03:38:49;;;;;;;1.20;1.10;;;25.00;72.50;;;;;;6309927;22;20172;-86
2023/08/16 03:41:18;;;;;;;0.73;0.40;;;25.10;72.60;;;;;;6312892;22;20199;-85
2023/08/16 03:43:47;;;;;;;2.20;0.63;;;25.20;72.70;;;;;;6260853;22;20173;-86
2023/08/16 03:46:18;;;;;;;0.68;0.55;;;25.20;72.40;;;;;;6284053;22;20169;-86
2023/08/16 03:48:47;;;;;;;3.45;1.13;;;25.20;72.50;;;;;;6310673;22;20161;-86
2023/08/16 03:51:17;;;;;;;0.68;0.68;;;25.30;72.30;;;;;;6309930;22;20168;-86
2023/08/16 03:53:46;;;;;;;1.92;0.95;;;25.30;72.50;;;;;;6283022;22;20169;-85
2023/08/16 03:56:15;;;;;;;0.50;0.50;;;25.30;72.20;;;;;;6309988;22;20168;-85
2023/08/16 03:58:44;;;;;;;0.40;0.40;;;25.40;72.10;;;;;;6310838;22;20196;-87
2023/08/16 04:01:12;;;;;;;0.40;0.40;;;25.40;71.70;;;;;;6308342;22;20211;-87
2023/08/16 04:03:42;;;;;;;0.60;0.50;;;25.40;71.60;;;;;;6309622;22;20169;-86
2023/08/16 04:06:12;;;;;;;0.40;0.40;;;25.50;71.60;;;;;;6310716;22;20188;-87
2023/08/16 04:08:41;;;;;;;2.28;1.65;;;25.40;71.40;;;;;;6310971;22;20216;-84
2023/08/16 04:11:09;;;;;;;0.40;0.40;;;25.40;71.30;;;;;;6309792;22;20169;-85
2023/08/16 04:13:38;;;;;;;1.38;0.85;;;25.50;71.30;;;;;;6310034;22;20502;-85
2023/08/16 04:16:07;;;;;;;0.32;0.32;;;25.50;71.00;;;;;;6310230;22;20196;-86
2023/08/16 04:18:36;;;;;;;0.77;0.77;;;25.60;71.00;;;;;;6310174;22;20165;-85
2023/08/16 04:21:06;;;;;;;0.68;0.65;;;25.60;71.00;;;;;;6309783;22;20193;-86
2023/08/16 04:23:36;;;;;;;0.25;0.25;;;25.60;71.20;;;;;;6283249;22;20154;-85
2023/08/16 04:26:04;;;;;;;0.57;0.57;;;25.60;71.10;;;;;;6282951;22;20261;-84
2023/08/16 04:28:33;;;;;;;0.70;0.70;;;25.60;71.00;;;;;;6309616;22;20276;-85
2023/08/16 04:31:03;;;;;;;1.13;1.00;;;25.60;70.90;;;;;;6310498;22;20222;-85
2023/08/16 04:33:32;;;;;;;0.88;0.88;;;25.70;70.60;;;;;;6309876;22;20169;-85
2023/08/16 04:36:01;;;;;;;1.35;1.20;;;25.70;70.50;;;;;;6309599;22;20165;-85
2023/08/16 04:38:31;;;;;;;1.02;0.80;;;25.80;70.20;;;;;;6309756;22;20173;-84
2023/08/16 04:41:03;;;;;;;2.25;0.90;;;25.80;70.00;;;;;;6307367;22;20204;-85
2023/08/16 04:43:31;;;;;;;2.58;1.45;;;25.80;69.90;;;;;;6308455;22;20165;-86
2023/08/16 04:46:04;;;;;;;2.17;1.88;;;25.90;69.80;;;;;;6307846;22;20169;-87
2023/08/16 04:48:34;;;;;;;5.05;1.75;;;25.90;69.60;;;;;;6308269;22;20214;-85
2023/08/16 04:51:02;;;;;;;2.17;1.65;;;26.00;69.40;;;;;;6258046;22;20243;-85
2023/08/16 04:53:32;;;;;;;5.50;2.15;;;26.00;69.30;;;;;;6311872;22;20169;-87
2023/08/16 04:56:01;;;;;;;2.25;1.15;;;26.00;69.00;;;;;;6310139;22;20241;-90
2023/08/16 04:58:29;;;;;;;2.30;1.15;;;26.10;68.80;;;;;;6309044;22;20188;-85
2023/08/16 05:00:58;;;;;;;0.70;0.60;;;26.10;68.60;;;;;;6309642;22;20185;-87
2023/08/16 05:03:26;;;;;;;9.45;1.33;;;26.10;68.30;;;;;;6308324;22;20982;-87
2023/08/16 05:06:01;;;;;;;2.65;0.93;;;26.20;68.30;;;;;;6308224;22;20175;-85
2023/08/16 05:08:30;;;;;;;3.65;1.75;;;26.10;68.50;;;;;;6308633;22;20693;-84
2023/08/16 05:11:00;;;;;;;0.73;0.70;;;26.20;69.10;;;;;;6308521;22;20173;-83
2023/08/16 05:13:28;;;;;;;1.17;1.05;;;26.20;68.10;;;;;;6311436;22;20173;-87
2023/08/16 05:15:57;;;;;;;3.60;0.93;;;26.30;68.10;;;;;;6308946;22;20469;-86
2023/08/16 05:18:26;;;;;;;1.17;0.70;;;26.40;68.20;;;;;;6309047;22;20175;-86
2023/08/16 05:20:57;;;;;;;0.50;0.40;;;26.40;67.90;;;;;;6282040;22;20196;-85
2023/08/16 05:23:26;;;;;;;0.32;0.32;;;26.40;67.70;;;;;;6306252;22;20160;-87
2023/08/16 05:25:56;;;;;;;0.63;0.63;;;26.50;67.60;;;;;;6306486;22;20541;-85
2023/08/16 05:28:26;;;;;;;2.40;0.90;;;26.50;67.50;;;;;;6278706;22;20232;-84
2023/08/16 05:30:55;;;;;;;1.02;0.70;;;26.50;67.50;;;;;;6306394;22;20200;-85
2023/08/16 05:33:23;;;;;;;1.33;0.80;;;26.60;67.40;;;;;;6308375;22;20169;-86
2023/08/16 05:35:52;;;;;;;0.73;0.60;;;26.60;67.10;;;;;;6309412;22;20199;-87
2023/08/16 05:38:22;;;;;;;0.38;0.38;;;26.70;67.10;;;;;;6308494;22;20222;-84
2023/08/16 05:40:50;;;;;;;0.57;0.55;;;26.80;67.10;;;;;;6307955;22;20189;-86
2023/08/16 05:43:19;;;;;;;0.50;0.50;;;26.80;67.00;;;;;;6309132;22;20778;-86
2023/08/16 05:45:49;;;;;;;0.63;0.63;;;26.90;66.90;;;;;;6307325;22;20169;-88
2023/08/16 05:48:17;;;;;;;0.50;0.50;;;27.10;66.90;;;;;;6311314;22;20158;-84
2023/08/16 05:50:46;;;;;;;2.22;1.23;;;27.20;66.90;;;;;;6305806;22;20165;-86
2023/08/16 05:53:14;;;;;;;2.63;1.35;;;27.20;66.70;;;;;;6305457;22;20169;-86
2023/08/16 05:55:43;;;;;;;1.65;0.88;;;27.40;66.60;;;;;;6307452;22;20173;-85
2023/08/16 05:58:12;;;;;;;0.70;0.50;;;27.50;66.50;;;;;;6308478;22;20219;-86
2023/08/16 06:00:40;;;;;;;0.43;0.43;;;27.60;66.30;;;;;;6307299;22;20165;-84
2023/08/16 06:03:10;;;;;;;0.30;0.30;;;27.70;66.10;;;;;;6306696;22;20618;-84
2023/08/16 06:05:40;;;;;;;0.43;0.43;;;27.70;65.20;;;;;;6305916;22;20165;-86
2023/08/16 06:08:11;;;;;;;0.73;0.73;;;27.70;64.90;;;;;;6307007;22;20165;-84
2023/08/16 06:10:40;;;;;;;0.43;0.43;;;27.80;65.20;;;;;;6309215;22;20189;-85
2023/08/16 06:13:08;;;;;;;0.98;0.93;;;27.80;65.10;;;;;;6308433;22;20248;-85
2023/08/16 06:15:37;;;;;;;0.47;0.47;;;27.80;65.10;;;;;;6306883;22;20169;-86
2023/08/16 06:18:05;;;;;;;1.40;0.75;;;27.80;65.10;;;;;;6308524;22;20165;-86
2023/08/16 06:20:35;;;;;;;1.15;0.57;;;27.80;65.00;;;;;;6309333;22;20169;-85
2023/08/16 06:23:04;;;;;;;0.60;0.60;;;27.80;65.10;;;;;;6309124;22;20219;-86
2023/08/16 06:25:33;;;;;;;2.95;1.13;;;27.70;65.10;;;;;;6311356;22;20166;-87
2023/08/16 06:28:04;;;;;;;1.25;1.15;;;27.70;65.10;;;;;;6310848;22;20272;-85
2023/08/16 06:30:33;;;;;;;1.05;0.70;;;27.80;65.10;;;;;;6282285;22;20668;-91
2023/08/16 06:33:02;;;;;;;0.30;0.30;;;27.80;65.10;;;;;;6285290;22;20173;-87
2023/08/16 06:35:47;;;;;;;0.55;0.52;;;27.80;65.10;;;;;;6312502;22;20188;-92
2023/08/16 06:38:16;;;;;;;3.80;0.40;;;27.80;65.20;;;;;;6287357;22;20168;-89
2023/08/16 06:40:46;;;;;;;0.60;0.60;;;27.80;65.20;;;;;;6288940;22;20176;-92
2023/08/16 06:43:15;;;;;;;1.17;0.75;;;27.80;65.30;;;;;;6314869;22;20603;-91
2023/08/16 06:45:56;;;;;;;0.60;0.60;;;27.80;65.40;;;;;;6315233;22;20511;-91
2023/08/16 06:48:26;;;;;;;2.35;0.98;;;27.80;65.40;;;;;;6316037;22;20336;-94
2023/08/16 06:50:57;;;;;;;0.63;0.63;;;27.80;65.40;;;;;;6315438;22;20179;-92
2023/08/16 06:53:28;;;;;;;1.45;0.50;;;27.90;65.50;;;;;;6288092;22;20172;-92
2023/08/16 06:55:57;;;;;;;0.30;0.30;;;28.00;65.50;;;;;;6314519;22;20191;-94
2023/08/16 06:58:28;;;;;;;0.30;0.30;;;27.90;65.50;;;;;;6315325;22;20478;-93
2023/08/16 07:00:56;;;;;;;0.32;0.32;;;28.10;65.50;;;;;;6314741;22;20676;-94
2023/08/16 07:03:25;;;;;;;0.38;0.38;;;28.10;65.40;;;;;;6287592;22;20256;-92
2023/08/16 07:05:54;;;;;;;0.65;0.60;;;28.30;65.40;;;;;;6313501;22;20169;-93
2023/08/16 07:08:24;;;;;;;0.50;0.50;;;28.40;65.40;;;;;;6313365;22;20167;-91
2023/08/16 07:10:54;;;;;;;0.73;0.47;;;28.40;65.20;;;;;;6313553;22;20157;-92
2023/08/16 07:13:23;;;;;;;0.47;0.47;;;28.50;65.20;;;;;;6314497;22;20169;-91
2023/08/16 07:15:51;;;;;;;0.63;0.63;;;28.50;65.20;;;;;;6311323;22;20602;-93
2023/08/16 07:18:21;;;;;;;0.40;0.40;;;28.50;65.00;;;;;;6312096;22;20165;-94
2023/08/16 07:20:50;;;;;;;3.03;0.60;;;28.50;64.90;;;;;;6286582;22;20165;-91
2023/08/16 07:23:18;;;;;;;1.75;0.40;;;28.50;64.80;;;;;;6313617;22;20193;-90
2023/08/16 07:25:56;;;;;;;3.33;0.40;;;28.40;64.60;;;;;;6313829;22;20244;-91
2023/08/16 07:28:25;;;;;;;0.73;0.73;;;28.40;64.80;;;;;;6311314;22;20276;-86
2023/08/16 07:30:54;;;;;;;0.52;0.45;;;28.40;64.90;;;;;;6308186;22;20439;-85
2023/08/16 07:33:23;;;;;;;0.57;0.52;;;28.30;65.10;;;;;;6284823;22;20200;-89
2023/08/16 07:35:52;;;;;;;0.55;0.40;;;28.20;65.40;;;;;;6282936;22;20165;-84
2023/08/16 07:38:22;;;;;;;1.70;0.65;;;28.20;65.40;;;;;;6282536;22;20610;-84
2023/08/16 07:40:52;;;;;;;1.00;0.35;;;28.20;65.90;;;;;;6307879;22;20184;-83
2023/08/16 07:43:21;;;;;;;0.45;0.40;;;28.10;66.30;;;;;;6283278;22;20263;-83
2023/08/16 07:45:53;;;;;;;0.85;0.65;;;28.10;66.70;;;;;;6309098;22;20163;-84
2023/08/16 07:48:21;;;;;;;0.30;0.30;;;28.00;66.90;;;;;;6282582;22;20163;-83
2023/08/16 07:50:50;;;;;;;1.02;0.80;;;27.90;66.80;;;;;;6307331;22;20165;-85
2023/08/16 07:53:22;;;;;;;1.08;0.90;;;27.80;67.10;;;;;;6307984;22;20179;-85
2023/08/16 07:55:54;;;;;;;0.68;0.65;;;27.80;69.20;;;;;;6308888;22;20188;-84
2023/08/16 07:58:23;;;;;;;1.05;0.77;;;27.70;70.20;;;;;;6310475;22;20157;-89
2023/08/16 08:00:54;;;;;;;1.02;0.93;;;27.70;70.40;;;;;;6311412;22;20197;-89
2023/08/16 08:03:23;;;;;;;1.08;0.95;;;27.70;70.50;;;;;;6309096;22;20189;-85
2023/08/16 08:05:53;;;;;;;1.00;0.65;;;27.60;72.80;;;;;;6311369;22;20240;-91
2023/08/16 08:08:21;;;;;;;0.73;0.73;;;27.60;72.70;;;;;;6310694;22;20161;-89
2023/08/16 08:10:50;;;;;;;0.82;0.82;;;27.60;73.70;;;;;;6311938;22;20176;-89
2023/08/16 08:13:20;;;;;;;0.80;0.50;;;27.60;73.40;;;;;;6311979;22;20173;-90
2023/08/16 08:15:52;;;;;;;0.82;0.80;;;27.60;73.70;;;;;;6284275;22;20192;-88
2023/08/16 08:18:24;;;;;;;1.05;0.82;;;27.60;74.20;;;;;;6311101;22;20602;-89
2023/08/16 08:20:52;;;;;;;1.08;0.98;;;27.60;74.10;;;;;;6311809;22;20165;-89
2023/08/16 08:23:21;;;;;;;2.03;1.27;;;27.60;74.70;;;;;;6285279;22;20642;-92
2023/08/16 08:25:50;;;;;;;1.08;0.77;;;27.60;74.60;;;;;;6309022;22;20177;-88
2023/08/16 08:28:22;;;;;;;0.75;0.75;;;27.60;74.70;;;;;;6305340;22;20188;-86
2023/08/16 08:30:51;;;;;;;1.13;0.60;;;27.60;74.10;;;;;;6305213;22;20529;-87
2023/08/16 08:33:22;;;;;;;0.65;0.63;;;27.70;73.70;;;;;;6308250;22;20234;-86
2023/08/16 08:35:51;;;;;;;5.50;0.75;;;27.70;73.20;;;;;;6308109;22;20199;-86
2023/08/16 08:38:19;;;;;;;0.40;0.40;;;27.70;73.00;;;;;;6307909;22;20176;-88
2023/08/16 08:40:48;;;;;;;0.57;0.57;;;27.80;73.00;;;;;;6306973;22;20169;-87
2023/08/16 08:43:21;;;;;;;1.95;1.00;;;27.80;73.20;;;;;;6309041;22;20232;-92
2023/08/16 08:45:50;;;;;;;0.73;0.50;;;27.90;72.90;;;;;;6311595;22;20606;-91
2023/08/16 08:48:20;;;;;;;0.40;0.40;;;28.10;72.60;;;;;;6311717;22;20173;-92
2023/08/16 08:50:49;;;;;;;0.50;0.50;;;28.10;72.50;;;;;;6310673;22;20251;-92
2023/08/16 08:53:18;;;;;;;2.78;1.20;;;28.20;71.60;;;;;;6311514;22;20161;-90
2023/08/16 08:55:47;;;;;;;1.00;0.88;;;28.30;71.40;;;;;;6312694;22;20245;-90
2023/08/16 08:58:17;;;;;;;1.45;0.68;;;28.40;71.40;;;;;;6285192;22;20175;-90
2023/08/16 09:00:49;;;;;;;1.75;0.60;;;28.50;70.00;;;;;;6312764;22;20220;-91
2023/08/16 09:03:24;;;;;;;1.73;1.02;;;28.60;69.70;;;;;;6311709;22;20181;-92
2023/08/16 09:05:55;;;;;;;1.23;0.75;;;28.70;69.70;;;;;;6312158;22;20157;-91
2023/08/16 09:08:24;;;;;;;1.45;1.23;;;28.90;69.70;;;;;;6312551;22;20169;-91
2023/08/16 09:10:53;;;;;;;1.48;1.05;;;29.00;69.40;;;;;;6312497;22;20169;-89
2023/08/16 09:13:22;;;;;;;2.17;0.88;;;29.20;69.20;;;;;;6286752;22;20165;-91
2023/08/16 09:15:54;;;;;;;0.98;0.60;;;29.30;69.00;;;;;;6285444;22;20169;-89
2023/08/16 09:18:23;;;;;;;0.60;0.60;;;29.40;68.60;;;;;;6310824;22;20165;-87
2023/08/16 09:20:52;;;;;;;0.60;0.60;;;29.40;67.00;;;;;;6282033;22;20169;-90
2023/08/16 09:23:22;;;;;;;0.40;0.40;;;29.60;67.20;;;;;;6309089;22;20200;-90
2023/08/16 09:25:51;;;;;;;0.77;0.63;;;29.60;67.10;;;;;;6309471;22;20172;-89
2023/08/16 09:28:20;;;;;;;0.45;0.45;;;29.70;65.80;;;;;;6308545;22;20200;-92
2023/08/16 09:30:49;;;;;;;0.60;0.60;;;29.80;65.90;;;;;;6310290;22;20165;-91
2023/08/16 09:33:23;;;;;;;1.02;0.50;;;29.90;65.60;;;;;;6311427;22;20169;-88
2023/08/16 09:35:52;;;;;;;1.25;0.82;;;30.00;65.10;;;;;;6309910;22;20194;-91
2023/08/16 09:38:23;;;;;;;0.30;0.30;;;30.10;64.90;;;;;;6309108;22;20169;-90
2023/08/16 09:40:56;;;;;;;2.47;0.70;;;30.20;63.80;;;;;;6308165;22;20172;-90
2023/08/16 09:43:24;;;;;;;0.40;0.40;;;30.20;64.10;;;;;;6309327;22;20177;-88
2023/08/16 09:45:57;;;;;;;0.80;0.80;;;30.30;63.60;;;;;;6311298;22;20165;-86
2023/08/16 09:48:35;;;;;;;3.00;1.65;;;30.40;63.40;;;;;;6310825;22;20173;-92
2023/08/16 09:51:07;;;;;;;0.60;0.60;;;30.50;63.50;;;;;;6308952;22;20161;-88
2023/08/16 09:53:48;;;;;;;0.40;0.40;;;30.60;63.40;;;;;;6310554;22;20184;-88
2023/08/16 09:56:20;;;;;;;0.68;0.68;;;30.70;63.00;;;;;;6311846;22;20160;-89
2023/08/16 09:59:09;;;;;;;1.02;0.70;;;30.80;62.60;;;;;;6313278;22;20172;-89
2023/08/16 10:01:41;;;;;;;1.48;0.90;;;30.90;62.40;;;;;;6312769;22;20153;-88
2023/08/16 10:04:16;;;;;;;0.43;0.43;;;30.90;62.10;;;;;;6324246;22;20498;-88
2023/08/16 10:06:48;;;;;;;0.88;0.43;;;31.00;62.20;;;;;;6312142;22;20211;-89
2023/08/16 10:09:20;;;;;;;0.75;0.70;;;31.10;62.00;;;;;;6314531;22;20161;-89
2023/08/16 10:11:57;;;;;;;0.40;0.40;;;31.10;61.60;;;;;;6312986;22;20157;-89
2023/08/16 10:14:27;;;;;;;1.38;0.82;;;31.10;61.00;;;;;;6314174;22;20238;-84
2023/08/16 10:16:59;;;;;;;0.60;0.60;;;31.10;61.10;;;;;;6314300;22;20261;-90
2023/08/16 10:19:31;;;;;;;0.60;0.52;;;31.10;61.00;;;;;;6284636;22;20170;-89
2023/08/16 10:22:01;;;;;;;0.75;0.70;;;31.10;60.80;;;;;;6286375;22;20160;-88
2023/08/16 10:24:33;;;;;;;0.63;0.50;;;31.20;60.70;;;;;;6313351;22;20552;-89
2023/08/16 10:27:21;;;;;;;0.60;0.55;;;31.20;60.50;;;;;;6313556;22;20161;-89
2023/08/16 10:29:57;;;;;;;0.30;0.30;;;31.30;60.50;;;;;;6286443;22;20591;-87
2023/08/16 10:32:37;;;;;;;25.75;1.52;;;31.40;60.10;;;;;;6312889;22;20274;-88
2023/08/16 10:35:10;;;;;;;0.88;0.82;;;31.40;59.90;;;;;;6311896;22;20476;-89
2023/08/16 10:37:42;;;;;;;1.23;0.52;;;31.50;59.40;;;;;;6314786;22;20515;-91
2023/08/16 10:40:23;;;;;;;1.75;0.98;;;31.60;59.60;;;;;;6314077;22;20215;-90
2023/08/16 10:42:55;;;;;;;1.52;0.63;;;31.60;58.60;;;;;;6289484;22;20542;-89
2023/08/16 10:45:29;;;;;;;1.40;0.55;;;31.70;58.80;;;;;;6289826;22;20189;-88
2023/08/16 10:48:10;;;;;;;1.80;0.40;;;31.70;58.50;;;;;;6319097;22;20164;-91
2023/08/16 10:50:41;;;;;;;1.15;0.50;;;31.70;58.20;;;;;;6314937;22;20157;-90
2023/08/16 10:53:12;;;;;;;0.45;0.40;;;31.70;58.20;;;;;;6314193;22;20192;-87
2023/08/16 10:55:43;;;;;;;2.28;0.93;;;31.80;58.40;;;;;;6313562;22;20157;-93
2023/08/16 10:58:21;;;;;;;1.75;0.60;;;31.80;58.30;;;;;;6285742;22;20173;-91
2023/08/16 11:00:57;;;;;;;1.30;0.57;;;32.00;58.50;;;;;;6313161;22;20153;-91
2023/08/16 11:03:35;;;;;;;0.60;0.60;;;32.00;58.70;;;;;;6311853;22;20157;-91
2023/08/16 11:06:10;;;;;;;2.58;1.27;;;32.00;58.20;;;;;;6312617;22;20168;-90
2023/08/16 11:08:41;;;;;;;0.40;0.40;;;32.00;58.20;;;;;;6313679;22;20160;-88
2023/08/16 11:11:12;;;;;;;4.80;0.50;;;32.00;58.20;;;;;;6286941;22;20180;-89
2023/08/16 11:13:42;;;;;;;0.90;0.60;;;32.10;58.30;;;;;;6313199;22;20149;-85
2023/08/16 11:16:12;;;;;;;1.27;1.13;;;32.20;58.60;;;;;;6313960;22;20160;-91
2023/08/16 11:18:42;;;;;;;1.00;0.88;;;32.20;58.30;;;;;;6314833;22;20176;-91
2023/08/16 11:21:20;;;;;;;3.03;1.60;;;32.20;58.50;;;;;;6317339;22;20255;-89
2023/08/16 11:24:13;;;;;;;0.38;0.38;;;32.30;58.60;;;;;;6314900;22;20165;-90
2023/08/16 11:27:01;;;;;;;0.95;0.77;;;32.40;58.10;;;;;;6286829;22;20158;-91
2023/08/16 11:29:30;;;;;;;2.65;1.25;;;32.60;58.20;;;;;;6313305;22;20723;-87
2023/08/16 11:32:03;;;;;;;0.50;0.50;;;32.60;58.20;;;;;;6313690;22;20169;-87
2023/08/16 11:34:33;;;;;;;2.25;0.45;;;32.60;57.60;;;;;;6286646;22;20256;-90
2023/08/16 11:37:05;;;;;;;0.63;0.50;;;32.60;57.50;;;;;;6313546;22;20153;-91
2023/08/16 11:39:36;;;;;;;0.52;0.52;;;32.60;56.70;;;;;;6312706;22;20176;-88
2023/08/16 11:42:08;;;;;;;1.33;1.08;;;32.70;56.50;;;;;;6313018;22;20207;-90
2023/08/16 11:44:42;;;;;;;1.10;0.82;;;32.70;56.30;;;;;;6311833;22;20221;-90
2023/08/16 11:47:20;;;;;;;1.98;0.95;;;32.80;56.10;;;;;;6314959;22;20161;-87
2023/08/16 11:49:52;;;;;;;1.83;0.70;;;32.80;56.00;;;;;;6312189;22;20188;-87
2023/08/16 11:52:23;;;;;;;1.63;0.70;;;32.80;56.00;;;;;;6305813;22;20231;-85
2023/08/16 11:55:06;;;;;;;1.00;0.90;;;32.90;56.00;;;;;;6308776;22;20567;-87
2023/08/16 11:57:43;;;;;;;0.77;0.77;;;32.90;55.00;;;;;;6283474;22;20161;-86
2023/08/16 12:00:15;;;;;;;1.35;0.60;;;32.80;54.60;;;;;;6308857;22;20149;-86
2023/08/16 12:02:44;;;;;;;0.85;0.73;;;32.90;55.00;;;;;;6308144;22;20187;-87
2023/08/16 12:05:14;;;;;;;0.52;0.52;;;32.90;54.90;;;;;;6309581;22;20664;-85
2023/08/16 12:07:45;;;;;;;1.10;0.80;;;32.90;53.90;;;;;;6308255;22;20619;-85
2023/08/16 12:10:23;;;;;;;0.93;0.52;;;32.90;54.00;;;;;;6307837;22;20244;-86
2023/08/16 12:12:52;;;;;;;0.73;0.65;;;33.00;54.20;;;;;;6309071;22;20157;-85
2023/08/16 12:15:24;;;;;;;2.10;0.98;;;33.00;54.40;;;;;;6308161;22;20165;-88
2023/08/16 12:17:59;;;;;;;0.45;0.45;;;33.00;54.40;;;;;;6307929;22;20161;-86
2023/08/16 12:20:29;;;;;;;1.35;0.98;;;33.00;54.20;;;;;;6306779;22;20169;-88
2023/08/16 12:22:58;;;;;;;0.50;0.50;;;33.10;54.60;;;;;;6308830;22;20171;-88
2023/08/16 12:25:27;;;;;;;0.50;0.47;;;33.10;54.70;;;;;;6307246;22;20194;-87
2023/08/16 12:27:56;;;;;;;0.75;0.75;;;33.10;55.00;;;;;;6310727;22;20250;-88
2023/08/16 12:30:25;;;;;;;0.90;0.52;;;33.10;54.80;;;;;;6280524;22;20684;-87
2023/08/16 12:32:54;;;;;;;0.60;0.50;;;33.20;55.00;;;;;;6309216;22;20169;-88
2023/08/16 12:35:22;;;;;;;0.68;0.68;;;33.20;55.30;;;;;;6308732;22;20617;-86
2023/08/16 12:37:51;;;;;;;0.65;0.52;;;33.20;55.20;;;;;;6308937;22;20179;-87
2023/08/16 12:40:25;;;;;;;1.02;0.93;;;33.20;55.50;;;;;;6307952;22;20677;-86
2023/08/16 12:42:53;;;;;;;10.63;0.63;;;33.20;55.40;;;;;;6308695;22;20161;-86
2023/08/16 12:45:22;;;;;;;0.98;0.60;;;33.20;55.40;;;;;;6307969;22;20196;-85
2023/08/16 12:47:51;;;;;;;0.73;0.68;;;33.30;55.50;;;;;;6282743;22;20169;-84
2023/08/16 12:50:22;;;;;;;0.75;0.60;;;33.30;55.30;;;;;;6308204;22;20169;-88
2023/08/16 12:52:52;;;;;;;0.45;0.38;;;33.40;55.40;;;;;;6282628;22;20509;-87
2023/08/16 12:55:23;;;;;;;0.40;0.40;;;33.40;55.20;;;;;;6308876;22;20165;-86
2023/08/16 12:57:53;;;;;;;0.98;0.98;;;33.40;55.00;;;;;;6284016;22;20153;-86
2023/08/16 13:00:30;;;;;;;1.17;0.70;;;33.40;55.30;;;;;;6308056;22;20173;-87
2023/08/16 13:03:14;;;;;;;0.63;0.60;;;33.50;55.50;;;;;;6308999;22;20153;-85
2023/08/16 13:05:43;;;;;;;0.57;0.50;;;33.50;55.40;;;;;;6308511;22;20235;-88